Time;durP1;ratioP1;P1;durP2;ratioP2;P2;SDS_P1;SDS_P2;PMS_P1;PMS_P2;Temp;Humidity;BMP_temperature;BMP_pressure;BME280_temperature;BME280_humidity;BME280_pressure;Samples;Min_cycle;Max_cycle;Signal;HPM_P1;HPM_P2
2021/06/17 00:03:53;;;;;;;9.17;6.10;;;;;;;23.34;51.87;97769.72;8425086;28;20218;-64
2021/06/17 00:07:56;;;;;;;8.80;6.30;;;;;;;23.25;51.06;97768.84;8418523;28;20300;-64
2021/06/17 00:12:01;;;;;;;8.73;6.60;;;;;;;23.21;52.04;97773.59;8418298;28;20265;-64
2021/06/17 00:16:08;;;;;;;7.83;6.40;;;;;;;23.23;51.68;97771.66;8388899;28;20230;-64
2021/06/17 00:20:12;;;;;;;7.53;6.00;;;;;;;23.09;51.10;97772.16;8385176;28;20230;-64
2021/06/17 00:24:15;;;;;;;7.77;6.37;;;;;;;23.14;51.20;97780.47;8384644;28;20300;-64
2021/06/17 00:28:18;;;;;;;9.27;6.20;;;;;;;23.09;51.07;97776.63;8384552;28;20210;-64
2021/06/17 00:32:23;;;;;;;8.73;6.13;;;;;;;23.13;50.16;97780.63;8384578;28;20210;-64
2021/06/17 00:36:25;;;;;;;7.33;5.57;;;;;;;23.07;50.93;97779.41;8384543;28;20237;-64
2021/06/17 00:40:29;;;;;;;7.63;5.40;;;;;;;23.07;50.26;97789.97;8384309;28;20207;-64
2021/06/17 00:44:32;;;;;;;8.37;5.70;;;;;;;23.02;50.73;97784.31;8384318;28;20221;-64
2021/06/17 00:48:36;;;;;;;9.90;6.10;;;;;;;22.80;49.94;97786.41;8384250;28;20386;-64
2021/06/17 00:52:39;;;;;;;8.93;5.80;;;;;;;22.63;50.13;97792.50;8384266;28;20203;-64
2021/06/17 00:56:41;;;;;;;11.80;6.17;;;;;;;22.68;49.82;97771.78;8384314;28;20202;-64
2021/06/17 01:00:45;;;;;;;10.90;5.43;;;;;;;22.71;49.14;97770.63;8384539;28;20225;-64
2021/06/17 01:04:49;;;;;;;8.50;5.80;;;;;;;22.75;49.11;97764.91;8444622;28;20213;-64
2021/06/17 01:08:59;;;;;;;11.17;5.20;;;;;;;22.69;48.97;97769.94;8446045;28;20548;-64
2021/06/17 01:13:10;;;;;;;8.77;5.87;;;;;;;22.55;48.65;97761.56;8417089;28;20186;-63
2021/06/17 01:17:35;;;;;;;7.07;5.27;;;;;;;22.64;49.43;97768.59;8416658;28;20197;-64
2021/06/17 01:21:56;;;;;;;9.97;5.67;;;;;;;22.63;48.32;97766.09;8416270;28;20202;-64
2021/06/17 01:26:04;;;;;;;7.70;5.30;;;;;;;22.64;49.41;97759.84;8416426;28;20205;-64
2021/06/17 01:30:10;;;;;;;8.63;5.50;;;;;;;22.58;49.92;97760.44;8416243;28;20213;-64
2021/06/17 01:34:13;;;;;;;11.87;5.90;;;;;;;22.63;48.77;97752.91;8416498;28;20210;-64
2021/06/17 01:38:19;;;;;;;11.47;5.90;;;;;;;22.34;49.26;97748.63;8416466;28;20209;-64
2021/06/17 01:42:22;;;;;;;9.53;5.47;;;;;;;22.42;49.54;97747.91;8416429;28;20199;-64
2021/06/17 01:46:27;;;;;;;8.37;5.53;;;;;;;22.47;49.75;97753.56;8416166;28;20403;-64
2021/06/17 01:50:30;;;;;;;7.30;5.43;;;;;;;22.34;50.12;97750.47;8415851;28;20202;-64
2021/06/17 01:54:33;;;;;;;11.00;5.80;;;;;;;22.41;49.73;97747.06;8415927;28;20229;-64
2021/06/17 01:58:36;;;;;;;7.20;5.23;;;;;;;22.25;49.72;97749.53;8415503;28;20205;-64
2021/06/17 02:02:41;;;;;;;12.17;6.30;;;;;;;22.02;50.12;97731.41;8415585;28;20202;-64
2021/06/17 02:06:44;;;;;;;11.17;5.70;;;;;;;22.15;50.52;97730.25;8415728;28;20229;-64
2021/06/17 02:10:47;;;;;;;8.83;5.37;;;;;;;22.21;49.66;97727.03;8428958;28;20417;-64
2021/06/17 02:14:51;;;;;;;10.87;5.50;;;;;;;22.14;50.18;97733.84;8449202;28;20233;-64
2021/06/17 02:18:56;;;;;;;6.40;5.10;;;;;;;22.28;49.54;97724.69;8449850;28;20200;-64
2021/06/17 02:23:03;;;;;;;5.93;5.30;;;;;;;22.10;50.15;97728.03;8437137;28;20204;-64
2021/06/17 02:27:08;;;;;;;7.87;5.70;;;;;;;22.06;49.82;97727.50;8455522;28;20198;-64
2021/06/17 02:31:13;;;;;;;9.30;5.40;;;;;;;22.08;50.42;97729.19;8455613;28;20198;-64
2021/06/17 02:35:21;;;;;;;7.97;5.50;;;;;;;22.08;50.60;97723.91;8455474;28;20295;-64
2021/06/17 02:39:26;;;;;;;10.60;5.60;;;;;;;22.01;50.55;97719.22;8455168;28;20273;-64
2021/06/17 02:43:31;;;;;;;7.00;5.90;;;;;;;21.96;50.92;97720.63;8454691;28;20207;-64
2021/06/17 02:47:34;;;;;;;7.67;6.10;;;;;;;21.94;50.71;97717.31;8455060;28;20205;-64
2021/06/17 02:51:38;;;;;;;8.73;5.67;;;;;;;21.83;50.91;97720.97;8454587;28;20537;-64
2021/06/17 02:55:42;;;;;;;11.13;6.20;;;;;;;21.81;51.54;97715.81;8454510;28;20233;-64
2021/06/17 02:59:54;;;;;;;7.90;5.73;;;;;;;21.71;51.61;97719.50;8454416;28;20208;-64
2021/06/17 03:04:00;;;;;;;6.53;5.17;;;;;;;21.75;51.72;97710.31;8454235;28;20202;-64
2021/06/17 03:08:14;;;;;;;7.60;5.30;;;;;;;21.71;51.76;97712.41;8454007;28;20224;-64
2021/06/17 03:12:18;;;;;;;6.07;5.47;;;;;;;21.62;52.18;97710.63;8421756;28;20229;-64
2021/06/17 03:16:26;;;;;;;8.10;5.70;;;;;;;21.58;52.59;97718.00;8420307;28;20235;-64
2021/06/17 03:20:31;;;;;;;6.73;5.37;;;;;;;21.51;52.84;97719.53;8420439;28;20205;-64
2021/06/17 03:24:39;;;;;;;9.00;5.70;;;;;;;21.46;52.38;97722.59;8419805;28;20205;-64
2021/06/17 03:28:42;;;;;;;11.77;6.03;;;;;;;21.33;52.75;97723.88;8420061;28;20534;-64
2021/06/17 03:32:45;;;;;;;7.67;5.90;;;;;;;21.40;53.21;97728.41;8418793;28;20227;-64
2021/06/17 03:36:48;;;;;;;11.90;5.90;;;;;;;21.43;53.09;97736.03;8419652;28;20247;-64
2021/06/17 03:40:53;;;;;;;7.70;5.70;;;;;;;21.39;53.08;97739.09;8419428;28;20199;-64
2021/06/17 03:44:57;;;;;;;7.47;6.23;;;;;;;21.45;53.42;97735.91;8419439;28;20208;-64
2021/06/17 03:49:00;;;;;;;9.20;6.23;;;;;;;21.43;53.43;97738.66;8419279;28;20200;-64
2021/06/17 03:53:03;;;;;;;9.73;6.60;;;;;;;21.34;53.36;97739.50;8419442;28;20205;-64
2021/06/17 03:57:08;;;;;;;7.50;6.37;;;;;;;21.39;53.62;97741.72;8398877;28;20422;-64
2021/06/17 04:01:12;;;;;;;8.87;6.63;;;;;;;21.45;54.17;97747.28;8382106;28;20386;-64
2021/06/17 04:05:14;;;;;;;12.27;6.57;;;;;;;21.53;53.22;97749.19;8418703;28;20538;-64
2021/06/17 04:09:25;;;;;;;7.30;6.03;;;;;;;21.57;53.42;97753.22;8419139;28;20236;-64
2021/06/17 04:13:33;;;;;;;8.47;6.27;;;;;;;21.46;52.83;97754.22;8452140;28;20198;-64
2021/06/17 04:17:38;;;;;;;13.20;7.13;;;;;;;21.35;53.38;97758.78;8451739;28;20227;-64
2021/06/17 04:21:41;;;;;;;9.13;7.30;;;;;;;21.40;53.01;97762.66;8451904;28;20522;-64
2021/06/17 04:25:45;;;;;;;10.63;6.70;;;;;;;21.61;52.83;97759.03;8451585;28;20207;-64
2021/06/17 04:29:50;;;;;;;8.47;6.17;;;;;;;21.81;52.51;97760.63;8451354;28;20199;-64
2021/06/17 04:33:53;;;;;;;10.20;7.07;;;;;;;21.89;52.28;97770.47;8451278;28;20205;-64
2021/06/17 04:37:57;;;;;;;8.80;7.10;;;;;;;21.88;51.21;97768.00;8451169;28;20226;-64
2021/06/17 04:42:00;;;;;;;12.17;9.50;;;;;;;21.92;51.67;97777.28;8450996;28;20504;-63
2021/06/17 04:46:05;;;;;;;13.30;8.00;;;;;;;21.97;50.84;97775.84;8451103;28;20202;-64
2021/06/17 04:50:09;;;;;;;12.00;7.90;;;;;;;21.96;50.93;97781.28;8451475;28;20211;-64
2021/06/17 04:54:18;;;;;;;11.97;7.07;;;;;;;22.28;50.51;97783.53;8450912;28;20282;-63
2021/06/17 04:58:22;;;;;;;10.03;7.60;;;;;;;22.49;49.56;97791.19;8438678;28;20200;-64
2021/06/17 05:02:27;;;;;;;10.97;7.83;;;;;;;22.45;49.63;97790.66;8398519;28;20586;-64
2021/06/17 05:06:33;;;;;;;11.63;8.57;;;;;;;22.14;49.83;97789.25;8395140;28;20529;-64
2021/06/17 05:10:50;;;;;;;9.87;7.63;;;;;;;22.45;48.95;97789.84;8406096;28;20422;-64
2021/06/17 05:14:53;;;;;;;10.43;7.50;;;;;;;22.51;49.76;97791.03;8413670;28;20236;-64
2021/06/17 05:18:57;;;;;;;10.13;7.43;;;;;;;22.63;48.63;97780.13;8393596;28;20195;-64
2021/06/17 05:23:00;;;;;;;10.33;6.40;;;;;;;22.87;48.31;97786.63;8402619;28;20195;-64
2021/06/17 05:27:06;;;;;;;9.20;6.20;;;;;;;22.94;47.87;97798.28;8412311;28;20417;-64
2021/06/17 05:31:09;;;;;;;8.10;6.10;;;;;;;23.06;47.24;97801.53;8415454;28;20205;-64
2021/06/17 05:35:15;;;;;;;15.97;7.80;;;;;;;23.15;46.50;97813.00;8415136;28;20230;-64
2021/06/17 05:39:18;;;;;;;19.17;7.43;;;;;;;23.26;47.17;97811.94;8415917;28;20210;-64
2021/06/17 05:43:22;;;;;;;16.53;7.73;;;;;;;23.29;47.94;97820.41;8416098;28;20367;-64
2021/06/17 05:47:25;;;;;;;11.03;6.77;;;;;;;23.37;47.40;97814.34;8416129;28;20206;-64
2021/06/17 05:51:29;;;;;;;10.33;6.40;;;;;;;23.32;46.67;97808.69;8415901;28;20209;-64
2021/06/17 05:55:32;;;;;;;9.63;6.10;;;;;;;23.69;45.82;97808.47;8415374;28;20233;-64
2021/06/17 05:59:35;;;;;;;14.30;6.37;;;;;;;23.73;45.40;97809.81;8415489;28;20206;-64
2021/06/17 06:03:37;;;;;;;9.77;6.50;;;;;;;23.81;45.46;97815.19;8437797;28;20213;-64
2021/06/17 06:07:42;;;;;;;10.57;5.67;;;;;;;24.08;45.05;97808.06;8448890;28;20222;-64
2021/06/17 06:11:44;;;;;;;5.93;4.70;;;;;;;23.83;44.28;97806.28;8421593;28;20231;-64
2021/06/17 06:15:47;;;;;;;10.17;5.23;;;;;;;24.06;43.97;97809.22;8415457;28;20237;-64
2021/06/17 06:19:50;;;;;;;8.30;4.70;;;;;;;24.11;45.01;97805.13;8415515;28;20209;-64
2021/06/17 06:23:54;;;;;;;6.07;4.73;;;;;;;24.32;44.00;97795.97;8415466;28;20199;-64
2021/06/17 06:27:57;;;;;;;7.83;4.40;;;;;;;24.57;42.49;97794.25;8415486;28;20493;-64
2021/06/17 06:32:00;;;;;;;5.93;4.30;;;;;;;24.70;43.41;97794.63;8397812;28;20207;-63
2021/06/17 06:36:04;;;;;;;9.80;5.60;;;;;;;24.45;44.10;97806.09;8381394;28;20234;-64
2021/06/17 06:40:09;;;;;;;7.63;4.67;;;;;;;24.79;43.40;97811.38;8381743;28;20210;-64
2021/06/17 06:44:13;;;;;;;7.27;4.57;;;;;;;24.97;43.40;97812.06;8381936;28;20209;-63
2021/06/17 06:48:17;;;;;;;10.57;5.40;;;;;;;25.09;42.41;97823.19;8373008;28;20210;-63
2021/06/17 06:52:19;;;;;;;8.37;4.27;;;;;;;25.45;42.34;97822.88;8381819;28;20206;-64
2021/06/17 06:56:24;;;;;;;7.63;4.23;;;;;;;25.56;39.62;97832.34;8381915;28;20407;-64
2021/06/17 07:00:26;;;;;;;6.80;3.60;;;;;;;25.77;39.74;97829.16;8381446;28;20270;-64
2021/06/17 07:04:29;;;;;;;8.90;4.43;;;;;;;25.47;39.67;97831.50;8394841;28;20211;-64
2021/06/17 07:08:32;;;;;;;10.53;4.60;;;;;;;25.53;39.97;97833.50;8386310;28;20220;-64
2021/06/17 07:12:39;;;;;;;10.00;4.63;;;;;;;25.91;39.04;97827.66;8414672;28;20195;-64
2021/06/17 07:16:42;;;;;;;7.37;4.40;;;;;;;25.96;39.07;97819.22;8419301;28;20229;-64
2021/06/17 07:20:45;;;;;;;6.93;4.83;;;;;;;26.30;38.88;97824.28;8419543;28;20214;-64
2021/06/17 07:24:48;;;;;;;11.17;5.37;;;;;;;25.85;38.31;97815.88;8419689;28;20195;-65
2021/06/17 07:28:53;;;;;;;9.83;4.03;;;;;;;26.58;37.65;97814.03;8420066;28;20214;-66
2021/06/17 07:32:56;;;;;;;10.83;4.80;;;;;;;26.87;37.78;97818.72;8420188;28;20409;-66
2021/06/17 07:36:58;;;;;;;6.20;4.20;;;;;;;27.11;36.93;97809.75;8419912;28;20410;-66
2021/06/17 07:41:01;;;;;;;6.43;4.33;;;;;;;27.33;36.28;97814.47;8419487;28;20201;-67
2021/06/17 07:45:07;;;;;;;8.93;4.67;;;;;;;27.42;35.93;97808.06;8419408;28;20206;-66
2021/06/17 07:49:11;;;;;;;11.27;4.80;;;;;;;27.98;35.34;97813.88;8419626;28;20238;-66
2021/06/17 07:53:14;;;;;;;8.07;4.37;;;;;;;28.10;34.08;97819.56;8419524;28;20395;-66
2021/06/17 07:57:17;;;;;;;8.93;4.60;;;;;;;27.70;35.19;97802.97;8419225;28;20230;-66
2021/06/17 08:01:21;;;;;;;7.77;3.80;;;;;;;28.52;33.93;97814.59;8421479;28;20721;-66
2021/06/17 08:05:24;;;;;;;7.77;4.07;;;;;;;28.37;33.96;97814.59;8452422;28;20222;-66
2021/06/17 08:09:27;;;;;;;7.10;4.13;;;;;;;28.38;33.25;97821.59;8444149;28;20409;-66
2021/06/17 08:13:29;;;;;;;7.00;4.30;;;;;;;28.48;33.04;97824.78;8418688;28;20376;-65
2021/06/17 08:17:33;;;;;;;7.83;4.00;;;;;;;29.14;32.98;97827.44;8418043;28;20234;-66
2021/06/17 08:21:36;;;;;;;7.83;4.13;;;;;;;29.29;32.64;97816.72;8418802;28;20204;-66
2021/06/17 08:25:39;;;;;;;8.67;4.20;;;;;;;29.69;32.24;97818.91;8418505;28;20496;-66
2021/06/17 08:29:42;;;;;;;5.77;4.20;;;;;;;29.76;32.28;97817.94;8417857;28;20209;-66
2021/06/17 08:33:46;;;;;;;11.27;4.07;;;;;;;29.35;31.90;97826.59;8417869;28;20202;-66
2021/06/17 08:37:49;;;;;;;8.00;4.17;;;;;;;29.55;31.92;97825.94;8417654;28;20424;-66
2021/06/17 08:41:52;;;;;;;8.67;3.73;;;;;;;29.24;31.82;97816.44;8417995;28;20202;-66
2021/06/17 08:45:55;;;;;;;8.53;4.00;;;;;;;29.47;32.08;97808.22;8417673;28;20212;-65
2021/06/17 08:50:01;;;;;;;7.80;3.50;;;;;;;29.51;31.78;97808.69;8417818;28;20221;-66
2021/06/17 08:54:04;;;;;;;9.10;3.90;;;;;;;29.69;31.35;97814.38;8417334;28;20202;-65
2021/06/17 08:58:07;;;;;;;7.30;4.13;;;;;;;29.96;31.19;97807.41;8417244;28;20409;-65
2021/06/17 09:02:10;;;;;;;8.67;4.47;;;;;;;30.10;31.32;97807.47;8416907;28;20237;-66
2021/06/17 09:06:17;;;;;;;5.37;3.60;;;;;;;30.49;31.06;97817.56;8417194;28;20233;-65
2021/06/17 09:10:21;;;;;;;9.90;4.67;;;;;;;30.60;31.18;97824.22;8425584;28;20228;-65
2021/06/17 09:14:26;;;;;;;8.40;4.20;;;;;;;30.12;31.68;97813.44;8450302;28;20225;-65
2021/06/17 09:18:30;;;;;;;6.10;3.87;;;;;;;31.20;31.15;97821.72;8450330;28;20226;-65
2021/06/17 09:22:35;;;;;;;5.43;3.77;;;;;;;31.55;30.06;97821.59;8450183;28;20394;-65
2021/06/17 09:26:39;;;;;;;6.27;3.87;;;;;;;31.45;29.52;97829.16;8420142;28;20376;-65
2021/06/17 09:30:42;;;;;;;5.30;3.43;;;;;;;31.96;30.11;97815.16;8415721;28;20203;-65
2021/06/17 09:34:45;;;;;;;5.30;3.93;;;;;;;31.79;29.44;97811.25;8416274;28;20218;-65
2021/06/17 09:38:51;;;;;;;7.23;3.70;;;;;;;32.05;30.16;97811.25;8416188;28;20245;-65
2021/06/17 09:42:55;;;;;;;4.83;3.47;;;;;;;32.41;29.61;97814.47;8416267;28;20200;-68
2021/06/17 09:47:05;;;;;;;8.23;3.70;;;;;;;32.52;27.88;97811.13;8416206;28;20398;-65
2021/06/17 09:51:28;;;;;;;7.20;3.80;;;;;;;33.04;28.99;97803.03;8415989;28;20208;-65
2021/06/17 09:55:44;;;;;;;5.87;3.50;;;;;;;33.09;27.99;97795.97;8416255;28;20206;-65
2021/06/17 09:59:49;;;;;;;7.00;4.17;;;;;;;33.09;28.50;97790.63;8415974;28;20531;-64
2021/06/17 10:04:00;;;;;;;5.50;3.67;;;;;;;33.34;27.39;97795.22;8439763;28;20217;-64
2021/06/17 10:08:04;;;;;;;5.07;3.70;;;;;;;33.36;27.39;97789.59;8449421;28;20225;-65
2021/06/17 10:12:09;;;;;;;7.97;3.80;;;;;;;32.99;26.69;97789.44;8418912;28;20233;-65
2021/06/17 10:16:17;;;;;;;4.97;3.50;;;;;;;33.08;26.72;97796.19;8415699;28;20296;-65
2021/06/17 10:20:20;;;;;;;5.50;3.57;;;;;;;33.42;26.59;97786.06;8415614;28;20212;-65
2021/06/17 10:24:24;;;;;;;7.73;3.17;;;;;;;32.90;26.13;97778.13;8415765;28;20209;-65
2021/06/17 10:28:42;;;;;;;6.70;3.60;;;;;;;33.56;26.09;97776.03;8415587;28;20205;-65
2021/06/17 10:32:47;;;;;;;3.50;3.10;;;;;;;33.27;25.73;97771.09;8415264;28;20203;-66
2021/06/17 10:37:06;;;;;;;7.73;3.40;;;;;;;33.23;24.69;97769.91;8415216;28;20241;-65
2021/06/17 10:41:08;;;;;;;5.40;2.60;;;;;;;33.00;23.72;97766.97;8418271;28;20213;-65
2021/06/17 10:45:14;;;;;;;4.83;2.63;;;;;;;32.41;22.99;97763.53;8421701;28;20225;-65
2021/06/17 10:50:02;;;;;;;6.13;3.20;;;;;;;32.83;23.71;97766.66;8401707;28;20203;-65
2021/06/17 10:54:05;;;;;;;6.50;3.00;;;;;;;32.67;24.35;97778.69;8388063;28;20515;-66
2021/06/17 10:58:09;;;;;;;3.77;2.73;;;;;;;33.35;22.59;97769.19;8387651;28;20237;-67
2021/06/17 11:02:13;;;;;;;3.43;2.77;;;;;;;33.22;23.09;97765.56;8375191;28;20209;-67
2021/06/17 11:06:16;;;;;;;6.67;3.07;;;;;;;33.44;22.97;97762.50;8420493;28;20249;-66
2021/06/17 11:10:41;;;;;;;6.60;3.10;;;;;;;33.62;24.16;97764.41;8429272;28;20236;-66
2021/06/17 11:14:46;;;;;;;6.37;3.27;;;;;;;33.59;24.38;97746.06;8453810;28;20206;-66
2021/06/17 11:19:08;;;;;;;5.03;3.10;;;;;;;33.49;23.70;97742.03;8453484;28;20337;-66
2021/06/17 11:23:11;;;;;;;5.10;2.80;;;;;;;34.15;23.36;97731.63;8453831;28;20531;-66
2021/06/17 11:27:27;;;;;;;4.87;3.00;;;;;;;33.79;23.16;97737.84;8453519;28;20205;-66
2021/06/17 11:31:37;;;;;;;4.90;2.90;;;;;;;33.68;23.27;97734.84;8453386;28;20400;-66
2021/06/17 11:35:42;;;;;;;4.23;2.90;;;;;;;34.43;23.74;97733.81;8453710;28;20209;-67
2021/06/17 11:39:47;;;;;;;8.53;3.00;;;;;;;34.68;23.60;97729.38;8453334;28;20224;-66
2021/06/17 11:43:56;;;;;;;7.57;3.10;;;;;;;34.12;23.38;97734.78;8453127;28;20229;-66
2021/06/17 11:48:00;;;;;;;5.60;2.77;;;;;;;34.50;22.79;97733.72;8452995;28;20204;-66
2021/06/17 11:52:14;;;;;;;4.20;2.70;;;;;;;34.34;22.98;97721.72;8420533;28;20495;-66
2021/06/17 11:56:30;;;;;;;5.40;2.87;;;;;;;34.85;22.70;97706.97;8419317;28;20200;-65
2021/06/17 12:00:33;;;;;;;7.63;2.90;;;;;;;34.31;21.94;97713.28;8419254;28;20224;-65
2021/06/17 12:04:49;;;;;;;4.93;2.87;;;;;;;34.32;21.60;97718.44;8449184;28;20534;-65
2021/06/17 12:09:07;;;;;;;7.30;2.80;;;;;;;34.73;20.71;97714.19;8448919;28;20300;-65
2021/06/17 12:13:11;;;;;;;3.53;2.63;;;;;;;34.42;21.71;97715.22;8418795;28;20205;-64
2021/06/17 12:17:26;;;;;;;5.43;2.67;;;;;;;34.62;21.44;97718.44;8418685;28;20232;-65
2021/06/17 12:21:33;;;;;;;4.60;2.53;;;;;;;34.59;21.56;97724.28;8418652;28;20204;-65
2021/06/17 12:25:39;;;;;;;4.40;2.80;;;;;;;34.65;21.51;97730.59;8418343;28;20209;-65
2021/06/17 12:29:41;;;;;;;4.43;2.83;;;;;;;34.73;20.83;97734.88;8418028;28;20216;-65
2021/06/17 12:33:46;;;;;;;3.77;2.70;;;;;;;34.83;21.49;97730.59;8399033;28;20198;-65
2021/06/17 12:37:54;;;;;;;4.73;2.70;;;;;;;34.69;21.09;97731.84;8375415;28;20225;-66
2021/06/17 12:41:58;;;;;;;5.10;2.63;;;;;;;34.80;20.41;97739.09;8367445;28;20211;-65
2021/06/17 12:46:04;;;;;;;5.40;2.60;;;;;;;34.90;20.82;97735.88;8367190;28;20524;-65
2021/06/17 12:54:34;;;;;;;3.10;2.43;;;;;;;35.08;19.91;97729.59;8367114;28;20191;-66
2021/06/17 12:58:48;;;;;;;5.53;2.27;;;;;;;34.47;20.22;97728.78;8372804;28;20562;-66
2021/06/17 13:02:52;;;;;;;4.30;2.38;;;;;;;34.68;20.82;97727.50;8398827;28;20213;-65
2021/06/17 13:06:55;;;;;;;10.20;2.72;;;;;;;35.03;21.44;97711.47;8416929;28;20221;-65
2021/06/17 13:10:58;;;;;;;5.50;2.70;;;;;;;34.34;21.12;97726.28;8431009;28;20237;-65
2021/06/17 13:15:06;;;;;;;6.30;2.70;;;;;;;34.69;21.39;97729.16;8450546;28;20359;-65
2021/06/17 13:19:09;;;;;;;3.63;2.67;;;;;;;34.76;20.83;97713.72;8396211;28;20540;-65
2021/06/17 13:23:16;;;;;;;8.68;2.88;;;;;;;34.43;21.11;97724.94;8386290;28;20194;-65
2021/06/17 13:27:21;;;;;;;3.13;2.42;;;;;;;34.98;21.28;97718.59;8388729;28;20222;-65
2021/06/17 13:31:29;;;;;;;5.40;2.85;;;;;;;35.28;22.04;97710.47;8391344;28;20210;-65
2021/06/17 13:35:32;;;;;;;3.70;2.55;;;;;;;35.17;20.73;97708.53;8392927;28;20465;-65
2021/06/17 13:39:35;;;;;;;3.10;2.53;;;;;;;35.33;21.20;97701.69;8393041;28;20231;-66
2021/06/17 13:43:38;;;;;;;3.00;2.70;;;;;;;35.43;22.36;97701.91;8382652;28;20199;-66
2021/06/17 13:47:42;;;;;;;7.25;2.40;;;;;;;35.15;20.44;97698.00;8383085;28;20220;-66
2021/06/17 13:51:45;;;;;;;8.63;2.40;;;;;;;34.87;20.96;97698.66;8383722;28;20194;-66
2021/06/17 13:55:47;;;;;;;6.70;2.63;;;;;;;34.51;20.91;97695.03;8384629;28;20199;-66
2021/06/17 13:59:50;;;;;;;4.05;2.60;;;;;;;34.46;20.20;97700.25;8389662;28;20226;-69
2021/06/17 14:03:55;;;;;;;4.65;2.50;;;;;;;34.47;21.03;97701.91;8408787;28;20210;-66
2021/06/17 14:07:58;;;;;;;4.88;2.45;;;;;;;34.61;20.90;97697.97;8415535;28;20248;-66
2021/06/17 14:12:00;;;;;;;4.65;2.50;;;;;;;34.51;21.30;97694.22;8410607;28;20416;-65
2021/06/17 14:16:04;;;;;;;3.33;2.80;;;;;;;34.93;22.38;97675.41;8408125;28;20216;-65
2021/06/17 14:20:09;;;;;;;5.30;2.60;;;;;;;34.95;20.44;97684.06;8418644;28;20532;-65
2021/06/17 14:24:12;;;;;;;3.40;2.57;;;;;;;34.76;20.65;97686.00;8403022;28;20217;-65
2021/06/17 14:28:15;;;;;;;8.88;2.50;;;;;;;34.63;21.66;97690.53;8402694;28;20387;-66
2021/06/17 14:32:19;;;;;;;5.13;2.50;;;;;;;34.49;20.15;97686.38;8382785;28;20199;-65
2021/06/17 14:36:23;;;;;;;3.50;2.70;;;;;;;34.62;20.23;97680.00;8388429;28;20232;-64
2021/06/17 14:40:26;;;;;;;4.15;2.95;;;;;;;34.39;21.02;97686.13;8403769;28;20241;-65
2021/06/17 14:44:29;;;;;;;3.70;2.60;;;;;;;34.57;21.94;97677.16;8401253;28;20195;-65
2021/06/17 14:48:32;;;;;;;4.17;3.00;;;;;;;34.44;21.60;97678.16;8394603;28;20272;-65
2021/06/17 14:52:36;;;;;;;4.43;2.85;;;;;;;34.29;21.20;97683.97;8388097;28;20202;-66
2021/06/17 14:56:39;;;;;;;5.50;3.03;;;;;;;33.98;21.25;97682.25;8388098;28;20203;-67
2021/06/17 15:00:44;;;;;;;3.90;2.63;;;;;;;33.87;22.35;97679.28;8387993;28;20253;-67
2021/06/17 15:04:48;;;;;;;6.80;3.00;;;;;;;33.92;21.68;97672.44;8387489;28;20381;-67
2021/06/17 15:08:52;;;;;;;3.10;2.57;;;;;;;34.02;21.93;97676.19;8387416;28;20524;-67
2021/06/17 15:12:55;;;;;;;5.50;2.67;;;;;;;34.06;22.16;97663.13;8395148;28;20197;-66
2021/06/17 15:16:58;;;;;;;3.70;2.97;;;;;;;34.04;22.17;97666.06;8403322;28;20201;-67
2021/06/17 15:21:01;;;;;;;4.23;2.80;;;;;;;33.82;22.22;97651.47;8387215;28;20272;-66
2021/06/17 15:25:07;;;;;;;4.30;2.90;;;;;;;33.76;22.74;97655.03;8387351;28;20202;-66
2021/06/17 15:29:10;;;;;;;5.40;3.03;;;;;;;33.73;22.83;97650.13;8385854;28;20212;-66
2021/06/17 15:33:12;;;;;;;6.70;3.37;;;;;;;33.69;23.36;97655.94;8386873;28;20209;-67
2021/06/17 15:37:15;;;;;;;6.77;3.10;;;;;;;33.38;23.05;97642.66;8387120;28;20237;-66
2021/06/17 15:41:19;;;;;;;4.93;2.90;;;;;;;33.04;23.40;97637.56;8399248;28;20236;-66
2021/06/17 15:45:22;;;;;;;4.47;3.10;;;;;;;33.13;23.25;97639.97;8395946;28;20482;-67
2021/06/17 15:49:25;;;;;;;8.40;2.87;;;;;;;33.26;23.19;97642.53;8396702;28;20494;-66
2021/06/17 15:53:28;;;;;;;4.90;3.03;;;;;;;33.29;22.96;97645.59;8395530;28;20203;-66
2021/06/17 15:57:32;;;;;;;6.20;3.20;;;;;;;33.38;22.88;97640.78;8395561;28;20192;-66
2021/06/17 16:01:35;;;;;;;4.40;3.17;;;;;;;33.31;23.05;97640.81;8395351;28;20230;-66
2021/06/17 16:05:38;;;;;;;5.10;2.93;;;;;;;33.45;24.24;97651.44;8395586;28;20553;-67
2021/06/17 16:09:41;;;;;;;3.27;2.73;;;;;;;33.45;24.60;97646.91;8385286;28;20234;-66
2021/06/17 16:13:46;;;;;;;5.67;2.90;;;;;;;33.32;23.52;97652.41;8368279;28;20387;-66
2021/06/17 16:17:49;;;;;;;4.50;3.20;;;;;;;32.93;23.50;97651.69;8368081;28;20231;-64
2021/06/17 16:21:54;;;;;;;5.37;3.07;;;;;;;32.88;23.96;97646.97;8367951;28;20235;-65
2021/06/17 16:25:56;;;;;;;3.57;2.97;;;;;;;32.99;23.84;97641.94;8367853;28;20200;-65
2021/06/17 16:30:01;;;;;;;3.80;2.80;;;;;;;32.99;23.66;97637.38;8367624;28;20198;-64
2021/06/17 16:34:04;;;;;;;5.20;2.87;;;;;;;33.02;23.89;97628.09;8367051;28;20194;-64
2021/06/17 16:38:09;;;;;;;3.53;2.90;;;;;;;32.89;23.75;97621.78;8367252;28;20194;-65
2021/06/17 16:42:12;;;;;;;4.03;3.07;;;;;;;32.78;24.21;97627.06;8367150;28;20238;-64
2021/06/17 16:46:16;;;;;;;3.37;3.00;;;;;;;32.59;24.02;97628.84;8378186;28;20201;-64
2021/06/17 16:50:19;;;;;;;4.87;3.13;;;;;;;32.63;24.20;97622.00;8384674;28;20209;-65
2021/06/17 16:54:25;;;;;;;3.90;3.10;;;;;;;32.60;24.13;97625.16;8384506;28;20393;-63
2021/06/17 16:58:30;;;;;;;4.63;2.97;;;;;;;32.46;24.57;97627.03;8384345;28;20203;-65
2021/06/17 17:02:34;;;;;;;3.53;2.63;;;;;;;32.42;23.98;97626.66;8383857;28;20203;-65
2021/06/17 17:06:38;;;;;;;5.90;2.60;;;;;;;32.42;24.48;97628.53;8383987;28;20544;-65
2021/06/17 17:10:40;;;;;;;7.37;2.70;;;;;;;32.33;24.66;97625.28;8401636;28;20557;-65
2021/06/17 17:14:43;;;;;;;5.97;3.27;;;;;;;32.14;24.24;97625.19;8416378;28;20204;-64
2021/06/17 17:18:48;;;;;;;4.13;3.30;;;;;;;32.10;23.94;97623.97;8416331;28;20371;-64
2021/06/17 17:22:50;;;;;;;8.87;3.10;;;;;;;31.98;24.60;97630.19;8416473;28;20212;-64
2021/06/17 17:26:53;;;;;;;7.13;3.33;;;;;;;31.87;24.95;97627.16;8416316;28;20208;-64
2021/06/17 17:30:57;;;;;;;5.50;3.10;;;;;;;31.87;25.28;97628.97;8416483;28;20216;-64
2021/06/17 17:35:02;;;;;;;3.80;3.37;;;;;;;31.83;25.64;97635.81;8416580;28;20208;-64
2021/06/17 17:39:07;;;;;;;4.03;3.00;;;;;;;31.74;25.40;97637.91;8424106;28;20228;-64
2021/06/17 17:43:09;;;;;;;5.27;3.17;;;;;;;31.62;24.93;97635.03;8435711;28;20191;-65
2021/06/17 17:47:12;;;;;;;5.27;2.80;;;;;;;31.58;25.21;97635.69;8381554;28;20281;-65
2021/06/17 17:51:16;;;;;;;6.60;3.20;;;;;;;31.59;25.76;97640.00;8398176;28;20203;-64
2021/06/17 17:55:19;;;;;;;8.40;3.30;;;;;;;31.55;25.62;97634.25;8415937;28;20200;-65
2021/06/17 17:59:22;;;;;;;3.80;3.23;;;;;;;31.53;25.68;97647.84;8415942;28;20281;-65
2021/06/17 18:03:25;;;;;;;5.57;3.10;;;;;;;31.12;26.28;97643.56;8415991;28;20199;-65
2021/06/17 18:07:29;;;;;;;4.33;3.13;;;;;;;31.08;26.24;97638.84;8415846;28;20422;-65
2021/06/17 18:11:34;;;;;;;8.33;3.40;;;;;;;30.92;27.50;97626.69;8415556;28;20239;-65
2021/06/17 18:15:38;;;;;;;5.20;4.10;;;;;;;30.79;27.13;97630.19;8415503;28;20211;-65
2021/06/17 18:19:41;;;;;;;5.30;3.40;;;;;;;30.77;26.79;97629.56;8415729;28;20235;-64
2021/06/17 18:23:45;;;;;;;4.53;2.80;;;;;;;30.75;27.15;97645.00;8415557;28;20199;-64
2021/06/17 18:27:48;;;;;;;4.10;2.97;;;;;;;30.72;27.35;97634.69;8415614;28;20199;-65
2021/06/17 18:31:51;;;;;;;4.90;3.17;;;;;;;30.65;27.55;97640.03;8415484;28;20204;-65
2021/06/17 18:35:54;;;;;;;4.37;2.60;;;;;;;30.62;28.02;97645.81;8414904;28;20218;-64
2021/06/17 18:40:00;;;;;;;3.63;2.50;;;;;;;30.49;28.54;97635.09;8424847;28;20233;-65
2021/06/17 18:44:03;;;;;;;4.77;2.80;;;;;;;30.40;28.18;97639.78;8448882;28;20508;-65
2021/06/17 18:48:06;;;;;;;3.20;2.90;;;;;;;30.34;28.14;97641.44;8448717;28;20211;-65
2021/06/17 18:52:10;;;;;;;4.83;4.10;;;;;;;30.22;28.56;97635.00;8448298;28;20216;-66
2021/06/17 18:56:14;;;;;;;5.97;3.23;;;;;;;30.16;29.23;97652.66;8448600;28;20385;-65
2021/06/17 19:00:17;;;;;;;3.97;2.80;;;;;;;30.07;29.80;97645.84;8448547;28;20226;-66
2021/06/17 19:04:20;;;;;;;6.17;3.30;;;;;;;29.88;34.40;97649.28;8454354;28;20265;-65
2021/06/17 19:08:23;;;;;;;7.27;3.53;;;;;;;29.68;34.47;97655.28;8454199;28;20425;-65
2021/06/17 19:12:30;;;;;;;4.03;3.40;;;;;;;29.53;35.00;97654.59;8455031;28;20335;-65
2021/06/17 19:16:33;;;;;;;3.93;3.40;;;;;;;29.40;36.15;97655.34;8454263;28;20211;-65